Aktualne dane pomiarowe

Uwaga, wersja testowa! Automatyczne pobieranie danych za pomocą narzędzi lub skryptów to umożliwiających jest zabronione.

Dane meteo z obszaru Polski uzyskane na podstawie depesz SYNOP pobieranych co godzinę z NWS. Najedź myszką na symbol przedstawiony w tabeli, aby uzyskać informacje co do jego znaczenia. Prosimy pamiętać, że to testowa wersja strony, która jeszcze nie jest ukończona. Stworzono również jest krótki FAQ dotyczący korzystania z tej podstrony Anomalie temperatury w chwili obecnej odniesione są do okresu referencyjnego 1951-2016. Okres ten będzie później zmieniony na 1981-2010. Kliknij ikonę aby pobrać plik CSV. Kliknij ikonę aby wygenerować mapę synoptyczną dla danego terminu.

Wybierz Datę:    

        

Kraków-Balice (12566)

Dane terminowe dla wybranej stacji. Kliknij datę, aby otrzymać dane z tego terminu dla wszystkich stacji.

TemperaturaZachmurzenieWiatrCiśnienieOpadyPogoda
 Data t td wb tx tn tg rh  Nt Nl Cl Cm Ch ws wd g1 g2 wx mslp ppp ch 24h 12h t ww ww w1 w2  
2019-07-04 23:00:00 12.1 6.6 8.8--- 6940.0wx-wx0----1018.5 989.5 -0.6---------
2019-07-04 22:00:00 13.2 6.3 9.2--- 6340.0wx-0---01018.7 989.8 -0.2---------
2019-07-04 21:00:00 13.9 6.0 9.4--- 5940.0wx-wx0---01018.9 990.0 -0.1---------
2019-07-04 20:00:00 15.8 6.0 10.3--- 5240.0wx-wx0---01018.8 990.1 -0.2---------
2019-07-04 19:00:00 18.2 5.1 11.1--- 4250.0wx-wx1wx--11018.4 990.0 -0.8---------
2019-07-04 18:00:00 21.3 3.9 12.1 23.6 15.1- 3250.0wx-wx3wx-1031018.2 990.1 -1.0- 0.012------
2019-07-04 17:00:00 22.7 3.2 12.5--- 2850.0wx-wx6wx--61018.3 990.3 -1.4---------
2019-07-04 16:00:00 23.2 3.7 12.9--- 2850.0wx-wxwx4wx---1018.8 990.8 -1.3---------
2019-07-04 15:00:00 23.0 3.5 12.7--- 2850.0wx-wx5wx-1051019.1 991.1 -1.5---------
2019-07-04 14:00:00 23.2 3.2 12.7--- 2750.0wxwxwx6wx--61019.7 991.7 -1.4---------
2019-07-04 13:00:00 22.3 3.9 12.6--- 3050.0wxwxwx5wx101051020.2 992.1 -1.3---------
2019-07-04 12:00:00 21.2 3.8 12.0--- 3250.0wxwxwx5wx---1020.8 992.6 -0.8---------
2019-07-04 11:00:00 20.8 3.9 11.9--- 3350.0wxwxwx5wx--51021.4 993.1 -0.3---------
2019-07-04 10:00:00 21.2 3.8 12.0--- 3250.0wxwxwx5wx--51021.6 993.4 -0.3---------
2019-07-04 09:00:00 19.7 3.4 11.2--- 3450.0wxwxwx4wx-941021.8 993.4 -0.3---------
2019-07-04 08:00:00 19.3 4.6 11.5--- 3850.0wxwxwx4wx--41021.8 993.4 -0.1---------
2019-07-04 07:00:00 17.8 6.3 11.4--- 4750.0wxwxwx2wx---1022.3 993.7 0.4---------
2019-07-04 06:00:00 15.1 7.6 10.7 20.1 8.4 6 6150.0wx-wx2wx--21022.5 993.7 0.4- 0.012------
2019-07-04 05:00:00 12.5 5.9 8.7--- 6450.0wx-wx1wx--11022.6 993.5 0.6---------
2019-07-04 04:00:00 10.3 5.9 7.6--- 7450.0wx-wxwx0---01022.6 993.3 0.4---------
2019-07-04 03:00:00 8.5 4.9 6.3--- 7850.0wx-wxwx0---01022.8 993.3 0.5---------
2019-07-04 02:00:00 9.3 4.9 6.7--- 7450.0wx-wx1wx--11022.3 992.9 0.1---------
2019-07-04 01:00:00 9.3 5.1 6.8--- 7540.0wx-wx1wx--11022.3 992.9 0.3---------
2019-07-04 00:00:00 11.2 5.9 8.1--- 7040.0wx-wx1wx--11022.0 992.8 0.4- 0.06------
2019-07-03 23:00:00 12.5 5.4 8.5--- 6240.0wx-wx0---01021.9 992.8 0.9---------
2019-07-03 22:00:00 13.7 5.3 9.0--- 5740.0wx-wx0---01021.6 992.6 1.1---------
2019-07-03 21:00:00 14.9 3.7 9.0--- 4740.0wx-wx1wx--11021.2 992.4 1.4---------
2019-07-03 20:00:00 15.8 3.6 9.4--- 4440.0wx-wx3wx--31020.6 991.9 0.8---------
2019-07-03 19:00:00 17.5 4.4 10.5--- 4240.0wx-wx2wx--21020.0 991.5 0.5---------
2019-07-03 18:00:00 20.1 3.7 11.5 22.8 17.1- 3450.0wx-wxwx3wx-1131019.3 991.0 0.0- 0.012------
2019-07-03 17:00:00 21.4 2.6 11.7--- 2950.0wx-wxwx5wx--51019.2 991.1 0.0---------
2019-07-03 16:00:00 21.9 2.6 11.9--- 2850.0wx-wxwx6wx-1161019.1 991.0 -0.4---------
2019-07-03 15:00:00 22.2 3.3 12.3--- 2950.0wx-wxwx6wx-1061019.1 991.0 -0.6---------
2019-07-03 14:00:00 22.4 4.0 12.6--- 3050.0wx-wx5wx101051019.1 991.1 -0.5---------
2019-07-03 13:00:00 22.1 4.2 12.6--- 3150.0wxwxwx7wx--71019.5 991.4 -0.3---------
2019-07-03 12:00:00 21.2 4.3 12.2--- 3350.0wxwxwx6wx---1019.8 991.6 -0.4---------
2019-07-03 11:00:00 20.9 4.0 12.0--- 3350.0wxwxwx6wx-1261019.8 991.6 -0.4---------
2019-07-03 10:00:00 21.2 3.4 11.9--- 3150.0wxwxwx5wx-1251019.9 991.7 -0.1---------
2019-07-03 09:00:00 20.7 3.8 11.8--- 3350.0wxwxwx7wx---1020.2 992.0 0.5---------
2019-07-03 08:00:00 18.9 5.3 11.5--- 4150.0wxwxwx5wx--51020.4 992.0 0.5---------
2019-07-03 07:00:00 18.4 7.5 12.2--- 4950.0wxwxwxwx4wx--41020.3 991.8 0.6---------
2019-07-03 06:00:00 17.2 7.5 11.6 22.6 12.6 9 5340.0wxwxwxwx3wx--31020.1 991.5 0.8- 0.012------
2019-07-03 05:00:00 15.4 8.8 11.4--- 6550.0wxwxwx3wx--31020.3 991.5 1.1---------
2019-07-03 04:00:00 13.4 8.5 10.4--- 7250.0wxwxwxwx3wx--31020.1 991.2 1.2---------
2019-07-03 03:00:00 12.7 8.0 9.8--- 7350.0wx-2wx--21019.7 990.7 0.8---------
2019-07-03 02:00:00 13.8 8.0 10.3--- 6850.0wx-wxwx0---01019.3 990.4 0.8---------
2019-07-03 01:00:00 14.0 8.0 10.4--- 6740.0wx-0---01018.8 990.0 0.5---------
2019-07-03 00:00:00 15.6 9.3 11.7--- 6640.0wxwxwx1wx--11018.6 989.9 0.8- 0.06------
9.6 ms

 

Print Friendly, PDF & Email